Eutawville, SC (29048)

5:38 PM EDT on August 30, 2015 (GMT -0400)
Dingle Pond | | Change Station
CLOSE
Current Station
Personal Weather Station
Location: Summerton, SC
Elevation: 95 ft
Nearby Weather Stations

Elev 95 ft 33.51 °N, 80.41 °W | Updated 7 seconds ago

Overcast
Overcast
76.5 °F
Feels Like 77 °F
N
4.5
Wind Variable Wind from NE
Gusts 6.0 mph

Today
High -- | Low -- °F
--% Chance of Precip.
Yesterday
High -- | Low -- °F
Precip. -- in
6:53 AM 7:49 PM
Full, 98% visible
Pressure 30.10 in
Visibility 10.0 miles
Clouds Scattered Clouds 800 ft
Scattered Clouds 1700 ft
Mostly Cloudy 6000 ft
Heat Index 77 °F
Dew Point 74 °F
Humidity 92%
Rainfall 0.04 in
Snow Depth Not available.
UV 1 out of 12
Pollen 2.80 out of 12
Air Quality Not available.
Flu Activity Not available.
METAR KMNI 302135Z 00000KT 10SM SCT008 SCT017 BKN060 23/23 A3010 RMK AO2 P0001 PWINO
Pressure 30.10 in
Visibility 10.0 miles
Clouds Scattered Clouds 800 ft
Scattered Clouds 1700 ft
Mostly Cloudy 6000 ft
Heat Index 77 °F
Dew Point 74 °F
Humidity 92%
Rainfall 0.04 in
Snow Depth Not available.
UV 1 out of 12
Pollen 2.80 out of 12
Air Quality Not available.
Flu Activity Not available.
METAR KMNI 302135Z 00000KT 10SM SCT008 SCT017 BKN060 23/23 A3010 RMK AO2 P0001 PWINO

10-Day Weather Forecast

×

Almanac

Astronomy

Aug. 30, 2015 Rise Set
Actual Time
Civil Twilight
Nautical Twilight
Astronomical Twilight
Moon
Length of Visible Light
Length of Day
Tomorrow will be .
, % of the Moon is Illuminated

Today's Extremes

State Highs State Lows

Community

WunderPhotos

Upload Photos

1,851,063 photos uploaded!

WunderBlogs® & News

Nearby

Air Quality

  Air Quality AQ Index Pollutant
Not available.

Snow Depth

Station Depth Elevation

Earthquake Activity

City Distance Mag. Time & Date
Minimum magnitude displayed is 2.5.

Coastal Water Temperatures

Place Temperature

Stations

Nearby Weather Stations

Station Location Temp. Windchill Dew Point Humidity Wind Precip. Elev Updated Type